sensor_id;sensor_type;location;lat;lon;timestamp;P1;durP1;ratioP1;P2;durP2;ratioP2
1014;SDS011;8170;48.118;11.628;2023-01-29T00:01:02;29.92;;;19.92;;
1014;SDS011;8170;48.118;11.628;2023-01-29T00:02:10;29.45;;;20.40;;
1014;SDS011;8170;48.118;11.628;2023-01-29T00:03:25;30.42;;;19.98;;
1014;SDS011;8170;48.118;11.628;2023-01-29T00:04:31;28.85;;;19.70;;
1014;SDS011;8170;48.118;11.628;2023-01-29T00:05:44;30.75;;;18.58;;
1014;SDS011;8170;48.118;11.628;2023-01-29T00:06:53;34.22;;;21.55;;
1014;SDS011;8170;48.118;11.628;2023-01-29T00:08:05;28.08;;;20.10;;
1014;SDS011;8170;48.118;11.628;2023-01-29T00:09:12;31.20;;;21.05;;
1014;SDS011;8170;48.118;11.628;2023-01-29T00:10:25;31.38;;;20.10;;
1014;SDS011;8170;48.118;11.628;2023-01-29T00:11:39;31.40;;;20.30;;
1014;SDS011;8170;48.118;11.628;2023-01-29T00:12:51;35.58;;;21.58;;
1014;SDS011;8170;48.118;11.628;2023-01-29T00:14:19;30.58;;;19.00;;
1014;SDS011;8170;48.118;11.628;2023-01-29T00:15:39;30.27;;;19.95;;
1014;SDS011;8170;48.118;11.628;2023-01-29T00:16:51;35.47;;;23.20;;
1014;SDS011;8170;48.118;11.628;2023-01-29T00:18:20;36.88;;;23.00;;
1014;SDS011;8170;48.118;11.628;2023-01-29T00:19:39;37.88;;;24.35;;
1014;SDS011;8170;48.118;11.628;2023-01-29T00:21:14;38.83;;;25.45;;
1014;SDS011;8170;48.118;11.628;2023-01-29T00:22:42;35.15;;;23.23;;
1014;SDS011;8170;48.118;11.628;2023-01-29T00:24:31;29.15;;;18.58;;
1014;SDS011;8170;48.118;11.628;2023-01-29T00:25:41;30.65;;;19.20;;
1014;SDS011;8170;48.118;11.628;2023-01-29T00:27:32;29.17;;;19.00;;
1014;SDS011;8170;48.118;11.628;2023-01-29T00:29:11;26.15;;;17.80;;
1014;SDS011;8170;48.118;11.628;2023-01-29T00:30:32;27.20;;;18.80;;
1014;SDS011;8170;48.118;11.628;2023-01-29T00:32:07;24.98;;;16.60;;
1014;SDS011;8170;48.118;11.628;2023-01-29T00:33:35;24.80;;;16.77;;
1014;SDS011;8170;48.118;11.628;2023-01-29T00:35:55;25.20;;;16.88;;
1014;SDS011;8170;48.118;11.628;2023-01-29T00:37:09;25.60;;;17.25;;
1014;SDS011;8170;48.118;11.628;2023-01-29T00:39:16;26.23;;;17.75;;
1014;SDS011;8170;48.118;11.628;2023-01-29T00:47:32;32.92;;;18.80;;
1014;SDS011;8170;48.118;11.628;2023-01-29T00:49:32;29.85;;;19.80;;
1014;SDS011;8170;48.118;11.628;2023-01-29T00:51:30;31.10;;;20.50;;
1014;SDS011;8170;48.118;11.628;2023-01-29T00:53:30;27.52;;;18.80;;
1014;SDS011;8170;48.118;11.628;2023-01-29T00:54:53;29.02;;;19.05;;
1014;SDS011;8170;48.118;11.628;2023-01-29T00:57:55;28.58;;;19.67;;
1014;SDS011;8170;48.118;11.628;2023-01-29T00:59:31;31.02;;;19.23;;
1014;SDS011;8170;48.118;11.628;2023-01-29T01:01:01;25.38;;;18.30;;
1014;SDS011;8170;48.118;11.628;2023-01-29T01:04:57;27.75;;;18.80;;
1014;SDS011;8170;48.118;11.628;2023-01-29T01:06:49;30.48;;;19.60;;
1014;SDS011;8170;48.118;11.628;2023-01-29T01:14:57;32.85;;;20.08;;
1014;SDS011;8170;48.118;11.628;2023-01-29T01:16:52;32.72;;;20.60;;
1014;SDS011;8170;48.118;11.628;2023-01-29T01:24:38;35.10;;;24.00;;
1014;SDS011;8170;48.118;11.628;2023-01-29T01:31:06;37.05;;;24.08;;
1014;SDS011;8170;48.118;11.628;2023-01-29T01:32:41;28.52;;;19.65;;
1014;SDS011;8170;48.118;11.628;2023-01-29T01:40:49;23.35;;;16.55;;
1014;SDS011;8170;48.118;11.628;2023-01-29T01:46:00;26.92;;;17.05;;
1014;SDS011;8170;48.118;11.628;2023-01-29T01:53:22;24.25;;;16.38;;
1014;SDS011;8170;48.118;11.628;2023-01-29T02:00:33;22.20;;;15.93;;
1014;SDS011;8170;48.118;11.628;2023-01-29T02:02:20;23.75;;;16.30;;
1014;SDS011;8170;48.118;11.628;2023-01-29T02:07:27;24.95;;;16.73;;
1014;SDS011;8170;48.118;11.628;2023-01-29T02:09:48;23.88;;;17.15;;
1014;SDS011;8170;48.118;11.628;2023-01-29T02:14:37;19.38;;;14.05;;
1014;SDS011;8170;48.118;11.628;2023-01-29T02:16:34;19.98;;;14.55;;
1014;SDS011;8170;48.118;11.628;2023-01-29T02:19:21;21.83;;;14.77;;
1014;SDS011;8170;48.118;11.628;2023-01-29T02:27:37;23.33;;;14.85;;
1014;SDS011;8170;48.118;11.628;2023-01-29T02:31:57;20.95;;;14.93;;
1014;SDS011;8170;48.118;11.628;2023-01-29T02:36:25;24.58;;;15.75;;
1014;SDS011;8170;48.118;11.628;2023-01-29T02:38:16;19.45;;;16.08;;
1014;SDS011;8170;48.118;11.628;2023-01-29T02:42:45;21.10;;;16.33;;
1014;SDS011;8170;48.118;11.628;2023-01-29T02:47:56;20.58;;;14.50;;
1014;SDS011;8170;48.118;11.628;2023-01-29T02:50:09;20.02;;;14.63;;
1014;SDS011;8170;48.118;11.628;2023-01-29T02:52:42;22.83;;;15.05;;
1014;SDS011;8170;48.118;11.628;2023-01-29T03:00:31;18.77;;;13.90;;
1014;SDS011;8170;48.118;11.628;2023-01-29T03:03:23;15.90;;;11.85;;
1014;SDS011;8170;48.118;11.628;2023-01-29T03:10:42;18.42;;;13.48;;
1014;SDS011;8170;48.118;11.628;2023-01-29T03:13:17;21.60;;;14.73;;
1014;SDS011;8170;48.118;11.628;2023-01-29T03:18:28;22.15;;;13.73;;
1014;SDS011;8170;48.118;11.628;2023-01-29T03:23:03;18.65;;;13.57;;
1014;SDS011;8170;48.118;11.628;2023-01-29T03:25:47;16.95;;;12.95;;
1014;SDS011;8170;48.118;11.628;2023-01-29T03:38:52;17.23;;;13.00;;
1014;SDS011;8170;48.118;11.628;2023-01-29T03:41:04;17.92;;;12.75;;
1014;SDS011;8170;48.118;11.628;2023-01-29T03:46:29;18.80;;;13.52;;
1014;SDS011;8170;48.118;11.628;2023-01-29T03:51:05;18.40;;;13.02;;
1014;SDS011;8170;48.118;11.628;2023-01-29T03:53:34;16.45;;;11.75;;
1014;SDS011;8170;48.118;11.628;2023-01-29T03:56:31;16.88;;;13.30;;
1014;SDS011;8170;48.118;11.628;2023-01-29T03:58:57;20.52;;;14.48;;
1014;SDS011;8170;48.118;11.628;2023-01-29T04:01:39;21.60;;;15.50;;
1014;SDS011;8170;48.118;11.628;2023-01-29T04:05:32;20.08;;;14.48;;
1014;SDS011;8170;48.118;11.628;2023-01-29T04:07:22;23.08;;;15.52;;
1014;SDS011;8170;48.118;11.628;2023-01-29T04:15:33;21.13;;;14.20;;
1014;SDS011;8170;48.118;11.628;2023-01-29T04:20:12;23.30;;;17.52;;
1014;SDS011;8170;48.118;11.628;2023-01-29T04:22:18;23.08;;;15.65;;
1014;SDS011;8170;48.118;11.628;2023-01-29T04:23:55;22.00;;;17.08;;
1014;SDS011;8170;48.118;11.628;2023-01-29T04:25:17;25.30;;;19.10;;
1014;SDS011;8170;48.118;11.628;2023-01-29T04:32:04;19.95;;;14.95;;
1014;SDS011;8170;48.118;11.628;2023-01-29T04:34:44;23.42;;;15.80;;
1014;SDS011;8170;48.118;11.628;2023-01-29T04:37:59;28.42;;;18.92;;
1014;SDS011;8170;48.118;11.628;2023-01-29T04:40:41;23.33;;;16.42;;
1014;SDS011;8170;48.118;11.628;2023-01-29T04:45:30;24.15;;;18.48;;
1014;SDS011;8170;48.118;11.628;2023-01-29T04:48:12;22.90;;;17.27;;
1014;SDS011;8170;48.118;11.628;2023-01-29T04:52:30;23.42;;;16.73;;
1014;SDS011;8170;48.118;11.628;2023-01-29T04:57:42;23.80;;;17.63;;
1014;SDS011;8170;48.118;11.628;2023-01-29T05:00:13;21.92;;;16.13;;
1014;SDS011;8170;48.118;11.628;2023-01-29T05:04:33;21.17;;;16.33;;
1014;SDS011;8170;48.118;11.628;2023-01-29T05:08:44;23.58;;;16.85;;
1014;SDS011;8170;48.118;11.628;2023-01-29T05:12:34;22.15;;;16.83;;
1014;SDS011;8170;48.118;11.628;2023-01-29T05:15:23;23.15;;;16.08;;
1014;SDS011;8170;48.118;11.628;2023-01-29T05:17:17;23.00;;;17.08;;
1014;SDS011;8170;48.118;11.628;2023-01-29T05:19:35;28.63;;;19.67;;
1014;SDS011;8170;48.118;11.628;2023-01-29T05:30:17;20.20;;;15.38;;
1014;SDS011;8170;48.118;11.628;2023-01-29T05:31:45;22.42;;;16.73;;
1014;SDS011;8170;48.118;11.628;2023-01-29T05:34:05;20.95;;;15.55;;
1014;SDS011;8170;48.118;11.628;2023-01-29T05:45:18;24.35;;;18.02;;
1014;SDS011;8170;48.118;11.628;2023-01-29T05:47:34;26.48;;;18.05;;
1014;SDS011;8170;48.118;11.628;2023-01-29T05:49:39;26.25;;;17.50;;
1014;SDS011;8170;48.118;11.628;2023-01-29T05:52:23;23.20;;;17.77;;
1014;SDS011;8170;48.118;11.628;2023-01-29T05:54:02;24.70;;;17.10;;
1014;SDS011;8170;48.118;11.628;2023-01-29T05:56:13;22.63;;;15.90;;
1014;SDS011;8170;48.118;11.628;2023-01-29T05:59:17;22.02;;;15.95;;
1014;SDS011;8170;48.118;11.628;2023-01-29T06:00:35;23.40;;;16.00;;
1014;SDS011;8170;48.118;11.628;2023-01-29T06:02:33;21.20;;;16.10;;
1014;SDS011;8170;48.118;11.628;2023-01-29T06:04:49;23.02;;;17.02;;
1014;SDS011;8170;48.118;11.628;2023-01-29T06:09:17;23.15;;;17.45;;
1014;SDS011;8170;48.118;11.628;2023-01-29T06:14:01;23.65;;;17.10;;
1014;SDS011;8170;48.118;11.628;2023-01-29T06:15:56;27.27;;;18.08;;
1014;SDS011;8170;48.118;11.628;2023-01-29T06:18:04;26.13;;;19.05;;
1014;SDS011;8170;48.118;11.628;2023-01-29T06:22:10;27.95;;;19.48;;
1014;SDS011;8170;48.118;11.628;2023-01-29T06:27:49;23.80;;;17.45;;
1014;SDS011;8170;48.118;11.628;2023-01-29T06:32:19;23.95;;;17.38;;
1014;SDS011;8170;48.118;11.628;2023-01-29T06:34:03;26.67;;;18.98;;
1014;SDS011;8170;48.118;11.628;2023-01-29T06:40:56;22.92;;;17.20;;
1014;SDS011;8170;48.118;11.628;2023-01-29T06:43:27;23.17;;;17.08;;
1014;SDS011;8170;48.118;11.628;2023-01-29T06:52:11;23.35;;;16.70;;
1014;SDS011;8170;48.118;11.628;2023-01-29T06:59:04;23.60;;;17.70;;
1014;SDS011;8170;48.118;11.628;2023-01-29T07:00:44;29.60;;;21.90;;
1014;SDS011;8170;48.118;11.628;2023-01-29T07:12:40;27.48;;;18.60;;
1014;SDS011;8170;48.118;11.628;2023-01-29T07:14:24;28.00;;;18.88;;
1014;SDS011;8170;48.118;11.628;2023-01-29T07:18:50;25.65;;;18.80;;
1014;SDS011;8170;48.118;11.628;2023-01-29T07:20:57;24.35;;;17.15;;
1014;SDS011;8170;48.118;11.628;2023-01-29T07:31:26;10.68;;;7.72;;
1014;SDS011;8170;48.118;11.628;2023-01-29T07:33:23;10.43;;;7.90;;
1014;SDS011;8170;48.118;11.628;2023-01-29T07:35:36;9.48;;;7.55;;
1014;SDS011;8170;48.118;11.628;2023-01-29T07:37:21;10.18;;;7.18;;
1014;SDS011;8170;48.118;11.628;2023-01-29T07:39:35;10.88;;;7.88;;
1014;SDS011;8170;48.118;11.628;2023-01-29T07:41:54;9.85;;;7.00;;
1014;SDS011;8170;48.118;11.628;2023-01-29T07:45:51;10.20;;;6.40;;
1014;SDS011;8170;48.118;11.628;2023-01-29T07:47:40;6.72;;;5.18;;
1014;SDS011;8170;48.118;11.628;2023-01-29T07:49:12;7.70;;;6.10;;
1014;SDS011;8170;48.118;11.628;2023-01-29T07:53:06;9.30;;;6.60;;
1014;SDS011;8170;48.118;11.628;2023-01-29T08:05:22;8.27;;;6.57;;
1014;SDS011;8170;48.118;11.628;2023-01-29T08:06:26;9.30;;;6.43;;
1014;SDS011;8170;48.118;11.628;2023-01-29T08:07:29;9.23;;;6.68;;
1014;SDS011;8170;48.118;11.628;2023-01-29T08:08:36;8.20;;;6.40;;
1014;SDS011;8170;48.118;11.628;2023-01-29T08:09:43;9.00;;;7.43;;
1014;SDS011;8170;48.118;11.628;2023-01-29T08:10:48;9.38;;;7.05;;
1014;SDS011;8170;48.118;11.628;2023-01-29T08:11:51;9.10;;;7.45;;
1014;SDS011;8170;48.118;11.628;2023-01-29T08:12:59;8.77;;;7.32;;
1014;SDS011;8170;48.118;11.628;2023-01-29T08:14:02;10.25;;;8.18;;
1014;SDS011;8170;48.118;11.628;2023-01-29T08:15:10;8.95;;;6.93;;
1014;SDS011;8170;48.118;11.628;2023-01-29T08:16:18;10.30;;;7.75;;
1014;SDS011;8170;48.118;11.628;2023-01-29T08:17:22;9.35;;;7.47;;
1014;SDS011;8170;48.118;11.628;2023-01-29T08:18:29;8.38;;;6.70;;
1014;SDS011;8170;48.118;11.628;2023-01-29T08:19:35;9.73;;;8.13;;
1014;SDS011;8170;48.118;11.628;2023-01-29T08:20:42;10.27;;;7.55;;
1014;SDS011;8170;48.118;11.628;2023-01-29T08:21:48;9.45;;;8.15;;
1014;SDS011;8170;48.118;11.628;2023-01-29T08:22:57;10.05;;;7.75;;
1014;SDS011;8170;48.118;11.628;2023-01-29T08:24:07;10.23;;;7.82;;
1014;SDS011;8170;48.118;11.628;2023-01-29T08:25:15;9.25;;;7.20;;
1014;SDS011;8170;48.118;11.628;2023-01-29T08:26:21;10.27;;;7.70;;
1014;SDS011;8170;48.118;11.628;2023-01-29T08:27:30;10.68;;;8.20;;
1014;SDS011;8170;48.118;11.628;2023-01-29T08:28:40;11.35;;;8.25;;
1014;SDS011;8170;48.118;11.628;2023-01-29T08:29:48;11.10;;;8.13;;
1014;SDS011;8170;48.118;11.628;2023-01-29T08:31:01;10.48;;;7.80;;
1014;SDS011;8170;48.118;11.628;2023-01-29T08:32:11;10.40;;;7.68;;
1014;SDS011;8170;48.118;11.628;2023-01-29T08:33:21;9.80;;;7.55;;
1014;SDS011;8170;48.118;11.628;2023-01-29T08:34:47;10.05;;;6.90;;
1014;SDS011;8170;48.118;11.628;2023-01-29T08:36:05;9.52;;;6.82;;
1014;SDS011;8170;48.118;11.628;2023-01-29T08:37:18;10.25;;;7.68;;
1014;SDS011;8170;48.118;11.628;2023-01-29T08:38:31;10.25;;;8.15;;
1014;SDS011;8170;48.118;11.628;2023-01-29T08:39:40;9.27;;;7.35;;
1014;SDS011;8170;48.118;11.628;2023-01-29T08:40:52;9.88;;;7.25;;
1014;SDS011;8170;48.118;11.628;2023-01-29T08:42:02;9.10;;;7.10;;
1014;SDS011;8170;48.118;11.628;2023-01-29T08:43:11;7.85;;;6.57;;
1014;SDS011;8170;48.118;11.628;2023-01-29T08:44:16;10.23;;;6.82;;
1014;SDS011;8170;48.118;11.628;2023-01-29T08:45:19;8.10;;;6.57;;
1014;SDS011;8170;48.118;11.628;2023-01-29T08:46:24;9.25;;;6.90;;
1014;SDS011;8170;48.118;11.628;2023-01-29T08:47:28;9.60;;;6.93;;
1014;SDS011;8170;48.118;11.628;2023-01-29T08:48:38;9.32;;;6.80;;
1014;SDS011;8170;48.118;11.628;2023-01-29T08:49:43;8.35;;;7.20;;
1014;SDS011;8170;48.118;11.628;2023-01-29T08:50:55;9.15;;;6.82;;
1014;SDS011;8170;48.118;11.628;2023-01-29T08:52:05;9.50;;;7.13;;
1014;SDS011;8170;48.118;11.628;2023-01-29T08:53:08;8.82;;;7.05;;
1014;SDS011;8170;48.118;11.628;2023-01-29T08:54:28;13.63;;;7.88;;
1014;SDS011;8170;48.118;11.628;2023-01-29T08:55:40;11.32;;;7.38;;
1014;SDS011;8170;48.118;11.628;2023-01-29T08:56:51;8.85;;;7.25;;
1014;SDS011;8170;48.118;11.628;2023-01-29T08:57:57;9.18;;;6.75;;
1014;SDS011;8170;48.118;11.628;2023-01-29T08:59:05;9.13;;;7.15;;
1014;SDS011;8170;48.118;11.628;2023-01-29T09:00:14;10.10;;;7.57;;
1014;SDS011;8170;48.118;11.628;2023-01-29T09:01:29;11.85;;;7.72;;
1014;SDS011;8170;48.118;11.628;2023-01-29T09:02:40;9.38;;;7.40;;
1014;SDS011;8170;48.118;11.628;2023-01-29T09:03:49;9.60;;;7.70;;
1014;SDS011;8170;48.118;11.628;2023-01-29T09:05:06;10.63;;;7.78;;
1014;SDS011;8170;48.118;11.628;2023-01-29T09:06:11;9.35;;;7.00;;
1014;SDS011;8170;48.118;11.628;2023-01-29T09:07:37;11.65;;;7.72;;
1014;SDS011;8170;48.118;11.628;2023-01-29T09:08:40;9.85;;;7.75;;
1014;SDS011;8170;48.118;11.628;2023-01-29T09:10:09;10.07;;;7.57;;
1014;SDS011;8170;48.118;11.628;2023-01-29T09:11:25;10.38;;;6.88;;
1014;SDS011;8170;48.118;11.628;2023-01-29T09:12:28;10.25;;;7.60;;
1014;SDS011;8170;48.118;11.628;2023-01-29T09:13:31;12.02;;;7.53;;
1014;SDS011;8170;48.118;11.628;2023-01-29T09:14:34;8.73;;;6.68;;
1014;SDS011;8170;48.118;11.628;2023-01-29T09:15:37;11.98;;;8.25;;
1014;SDS011;8170;48.118;11.628;2023-01-29T09:16:40;11.35;;;7.78;;
1014;SDS011;8170;48.118;11.628;2023-01-29T09:17:43;9.50;;;7.53;;
1014;SDS011;8170;48.118;11.628;2023-01-29T09:18:46;9.25;;;7.03;;
1014;SDS011;8170;48.118;11.628;2023-01-29T09:19:49;10.50;;;8.30;;
1014;SDS011;8170;48.118;11.628;2023-01-29T09:20:53;10.85;;;8.15;;
1014;SDS011;8170;48.118;11.628;2023-01-29T09:21:56;10.02;;;7.57;;
1014;SDS011;8170;48.118;11.628;2023-01-29T09:23:03;11.25;;;8.30;;
1014;SDS011;8170;48.118;11.628;2023-01-29T09:24:08;8.90;;;6.97;;
1014;SDS011;8170;48.118;11.628;2023-01-29T09:25:11;10.00;;;7.63;;
1014;SDS011;8170;48.118;11.628;2023-01-29T09:26:14;11.23;;;8.85;;
1014;SDS011;8170;48.118;11.628;2023-01-29T09:27:17;9.68;;;7.22;;
1014;SDS011;8170;48.118;11.628;2023-01-29T09:28:19;10.48;;;7.72;;
1014;SDS011;8170;48.118;11.628;2023-01-29T09:29:22;11.00;;;8.27;;
1014;SDS011;8170;48.118;11.628;2023-01-29T09:30:25;10.15;;;7.70;;
1014;SDS011;8170;48.118;11.628;2023-01-29T09:31:27;11.15;;;8.80;;
1014;SDS011;8170;48.118;11.628;2023-01-29T09:32:31;9.85;;;7.22;;
1014;SDS011;8170;48.118;11.628;2023-01-29T09:33:53;8.98;;;7.30;;
1014;SDS011;8170;48.118;11.628;2023-01-29T09:34:56;8.13;;;6.95;;
1014;SDS011;8170;48.118;11.628;2023-01-29T09:36:01;7.93;;;6.45;;
1014;SDS011;8170;48.118;11.628;2023-01-29T09:37:04;8.82;;;7.15;;
1014;SDS011;8170;48.118;11.628;2023-01-29T09:38:08;8.50;;;7.15;;
1014;SDS011;8170;48.118;11.628;2023-01-29T09:39:11;8.75;;;6.78;;
1014;SDS011;8170;48.118;11.628;2023-01-29T09:40:16;8.27;;;6.82;;
1014;SDS011;8170;48.118;11.628;2023-01-29T09:41:31;7.78;;;6.97;;
1014;SDS011;8170;48.118;11.628;2023-01-29T09:42:43;9.20;;;7.40;;
1014;SDS011;8170;48.118;11.628;2023-01-29T09:43:51;9.18;;;7.97;;
1014;SDS011;8170;48.118;11.628;2023-01-29T09:44:58;9.73;;;7.70;;
1014;SDS011;8170;48.118;11.628;2023-01-29T09:46:15;12.00;;;8.60;;
1014;SDS011;8170;48.118;11.628;2023-01-29T09:47:23;9.60;;;7.65;;
1014;SDS011;8170;48.118;11.628;2023-01-29T09:48:29;8.40;;;7.50;;
1014;SDS011;8170;48.118;11.628;2023-01-29T09:49:35;11.45;;;8.65;;
1014;SDS011;8170;48.118;11.628;2023-01-29T09:50:43;9.70;;;8.52;;
1014;SDS011;8170;48.118;11.628;2023-01-29T09:51:50;10.85;;;8.52;;
1014;SDS011;8170;48.118;11.628;2023-01-29T09:52:57;9.60;;;7.18;;
1014;SDS011;8170;48.118;11.628;2023-01-29T09:54:09;11.30;;;8.00;;
1014;SDS011;8170;48.118;11.628;2023-01-29T09:55:19;10.05;;;7.78;;
1014;SDS011;8170;48.118;11.628;2023-01-29T09:56:26;9.73;;;7.63;;
1014;SDS011;8170;48.118;11.628;2023-01-29T09:57:32;9.38;;;7.10;;
1014;SDS011;8170;48.118;11.628;2023-01-29T09:58:39;9.50;;;7.68;;
1014;SDS011;8170;48.118;11.628;2023-01-29T09:59:44;8.18;;;6.60;;
1014;SDS011;8170;48.118;11.628;2023-01-29T10:00:48;8.70;;;7.60;;
1014;SDS011;8170;48.118;11.628;2023-01-29T10:02:01;9.80;;;7.75;;
1014;SDS011;8170;48.118;11.628;2023-01-29T10:03:15;10.85;;;7.55;;
1014;SDS011;8170;48.118;11.628;2023-01-29T10:04:51;10.52;;;9.25;;
1014;SDS011;8170;48.118;11.628;2023-01-29T10:06:15;12.80;;;9.18;;
1014;SDS011;8170;48.118;11.628;2023-01-29T10:07:42;12.65;;;9.52;;
1014;SDS011;8170;48.118;11.628;2023-01-29T10:09:02;14.05;;;10.57;;
1014;SDS011;8170;48.118;11.628;2023-01-29T10:10:25;12.23;;;9.75;;
1014;SDS011;8170;48.118;11.628;2023-01-29T10:11:41;12.35;;;9.13;;
1014;SDS011;8170;48.118;11.628;2023-01-29T10:12:56;11.35;;;9.18;;
1014;SDS011;8170;48.118;11.628;2023-01-29T10:14:09;12.60;;;9.75;;
1014;SDS011;8170;48.118;11.628;2023-01-29T10:15:24;13.70;;;11.27;;
1014;SDS011;8170;48.118;11.628;2023-01-29T10:16:37;12.48;;;8.95;;
1014;SDS011;8170;48.118;11.628;2023-01-29T10:17:53;11.57;;;9.20;;
1014;SDS011;8170;48.118;11.628;2023-01-29T10:19:08;11.88;;;9.52;;
1014;SDS011;8170;48.118;11.628;2023-01-29T10:20:25;11.68;;;9.32;;
1014;SDS011;8170;48.118;11.628;2023-01-29T10:21:45;11.48;;;9.18;;
1014;SDS011;8170;48.118;11.628;2023-01-29T10:23:00;15.82;;;11.48;;
1014;SDS011;8170;48.118;11.628;2023-01-29T10:24:21;13.43;;;9.77;;
1014;SDS011;8170;48.118;11.628;2023-01-29T10:25:30;12.20;;;9.48;;
1014;SDS011;8170;48.118;11.628;2023-01-29T10:26:37;13.27;;;9.60;;
1014;SDS011;8170;48.118;11.628;2023-01-29T10:27:43;12.55;;;9.93;;
1014;SDS011;8170;48.118;11.628;2023-01-29T10:28:50;13.43;;;9.93;;
1014;SDS011;8170;48.118;11.628;2023-01-29T10:29:55;12.25;;;9.20;;
1014;SDS011;8170;48.118;11.628;2023-01-29T10:31:01;11.55;;;8.95;;
1014;SDS011;8170;48.118;11.628;2023-01-29T10:32:12;13.00;;;10.32;;
1014;SDS011;8170;48.118;11.628;2023-01-29T10:33:21;12.52;;;9.70;;
1014;SDS011;8170;48.118;11.628;2023-01-29T10:34:32;12.27;;;9.52;;
1014;SDS011;8170;48.118;11.628;2023-01-29T10:35:46;14.27;;;11.15;;
1014;SDS011;8170;48.118;11.628;2023-01-29T10:36:55;12.15;;;9.88;;
1014;SDS011;8170;48.118;11.628;2023-01-29T10:38:01;13.63;;;10.68;;
1014;SDS011;8170;48.118;11.628;2023-01-29T10:39:23;10.77;;;9.52;;
1014;SDS011;8170;48.118;11.628;2023-01-29T10:40:31;12.57;;;10.75;;
1014;SDS011;8170;48.118;11.628;2023-01-29T10:41:43;14.40;;;10.73;;
1014;SDS011;8170;48.118;11.628;2023-01-29T10:43:05;13.07;;;10.25;;
1014;SDS011;8170;48.118;11.628;2023-01-29T10:44:17;12.65;;;10.15;;
1014;SDS011;8170;48.118;11.628;2023-01-29T10:45:51;11.65;;;9.77;;
1014;SDS011;8170;48.118;11.628;2023-01-29T10:47:33;11.70;;;9.48;;
1014;SDS011;8170;48.118;11.628;2023-01-29T10:49:17;13.10;;;9.90;;
1014;SDS011;8170;48.118;11.628;2023-01-29T10:50:37;12.82;;;10.52;;
1014;SDS011;8170;48.118;11.628;2023-01-29T10:51:51;14.05;;;10.50;;
1014;SDS011;8170;48.118;11.628;2023-01-29T10:53:15;13.80;;;10.68;;
1014;SDS011;8170;48.118;11.628;2023-01-29T10:54:46;11.30;;;10.05;;
1014;SDS011;8170;48.118;11.628;2023-01-29T10:56:01;12.98;;;11.45;;
1014;SDS011;8170;48.118;11.628;2023-01-29T10:57:27;13.10;;;10.32;;
1014;SDS011;8170;48.118;11.628;2023-01-29T10:58:46;12.68;;;10.00;;
1014;SDS011;8170;48.118;11.628;2023-01-29T11:00:00;14.65;;;11.45;;
1014;SDS011;8170;48.118;11.628;2023-01-29T11:01:13;16.83;;;10.90;;
1014;SDS011;8170;48.118;11.628;2023-01-29T11:02:19;12.60;;;9.75;;
1014;SDS011;8170;48.118;11.628;2023-01-29T11:03:23;13.50;;;10.00;;
1014;SDS011;8170;48.118;11.628;2023-01-29T11:04:29;12.50;;;9.70;;
1014;SDS011;8170;48.118;11.628;2023-01-29T11:05:33;13.18;;;10.98;;
1014;SDS011;8170;48.118;11.628;2023-01-29T11:06:42;12.02;;;10.30;;
1014;SDS011;8170;48.118;11.628;2023-01-29T11:07:46;12.80;;;11.18;;
1014;SDS011;8170;48.118;11.628;2023-01-29T11:08:51;13.48;;;10.95;;
1014;SDS011;8170;48.118;11.628;2023-01-29T11:10:01;12.00;;;9.80;;
1014;SDS011;8170;48.118;11.628;2023-01-29T11:11:12;12.18;;;9.73;;
1014;SDS011;8170;48.118;11.628;2023-01-29T11:12:33;12.63;;;10.52;;
1014;SDS011;8170;48.118;11.628;2023-01-29T11:13:41;12.90;;;10.60;;
1014;SDS011;8170;48.118;11.628;2023-01-29T11:14:52;12.38;;;10.18;;
1014;SDS011;8170;48.118;11.628;2023-01-29T11:16:02;14.38;;;10.10;;
1014;SDS011;8170;48.118;11.628;2023-01-29T11:17:13;13.35;;;10.35;;
1014;SDS011;8170;48.118;11.628;2023-01-29T11:18:18;13.25;;;11.30;;
1014;SDS011;8170;48.118;11.628;2023-01-29T11:19:34;11.73;;;10.00;;
1014;SDS011;8170;48.118;11.628;2023-01-29T11:20:40;13.70;;;9.85;;
1014;SDS011;8170;48.118;11.628;2023-01-29T11:21:51;12.57;;;10.43;;
1014;SDS011;8170;48.118;11.628;2023-01-29T11:23:01;13.10;;;10.52;;
1014;SDS011;8170;48.118;11.628;2023-01-29T11:24:10;12.93;;;9.73;;
1014;SDS011;8170;48.118;11.628;2023-01-29T11:25:21;11.10;;;9.82;;
1014;SDS011;8170;48.118;11.628;2023-01-29T11:26:28;11.88;;;9.82;;
1014;SDS011;8170;48.118;11.628;2023-01-29T11:27:32;10.95;;;9.57;;
1014;SDS011;8170;48.118;11.628;2023-01-29T11:28:41;11.52;;;9.40;;
1014;SDS011;8170;48.118;11.628;2023-01-29T11:29:51;11.13;;;9.55;;
1014;SDS011;8170;48.118;11.628;2023-01-29T11:30:57;11.57;;;9.55;;
1014;SDS011;8170;48.118;11.628;2023-01-29T11:32:02;12.98;;;10.90;;
1014;SDS011;8170;48.118;11.628;2023-01-29T11:33:11;13.10;;;10.13;;
1014;SDS011;8170;48.118;11.628;2023-01-29T11:34:24;12.85;;;10.55;;
1014;SDS011;8170;48.118;11.628;2023-01-29T11:35:29;13.00;;;10.60;;
1014;SDS011;8170;48.118;11.628;2023-01-29T11:36:34;13.50;;;10.98;;
1014;SDS011;8170;48.118;11.628;2023-01-29T11:37:41;13.18;;;10.60;;
1014;SDS011;8170;48.118;11.628;2023-01-29T11:39:07;12.20;;;10.82;;
1014;SDS011;8170;48.118;11.628;2023-01-29T11:41:15;11.93;;;10.65;;
1014;SDS011;8170;48.118;11.628;2023-01-29T11:42:23;13.25;;;11.20;;
1014;SDS011;8170;48.118;11.628;2023-01-29T11:43:29;13.95;;;11.52;;
1014;SDS011;8170;48.118;11.628;2023-01-29T11:44:46;13.27;;;10.57;;
1014;SDS011;8170;48.118;11.628;2023-01-29T11:45:53;15.43;;;11.50;;
1014;SDS011;8170;48.118;11.628;2023-01-29T11:47:09;12.90;;;10.65;;
1014;SDS011;8170;48.118;11.628;2023-01-29T11:48:22;14.70;;;11.45;;
1014;SDS011;8170;48.118;11.628;2023-01-29T11:49:37;11.73;;;10.32;;
1014;SDS011;8170;48.118;11.628;2023-01-29T11:50:41;11.77;;;9.88;;
1014;SDS011;8170;48.118;11.628;2023-01-29T11:51:49;13.00;;;10.88;;
1014;SDS011;8170;48.118;11.628;2023-01-29T11:52:57;13.25;;;10.50;;
1014;SDS011;8170;48.118;11.628;2023-01-29T11:54:03;13.50;;;11.50;;
1014;SDS011;8170;48.118;11.628;2023-01-29T11:55:14;12.55;;;10.60;;
1014;SDS011;8170;48.118;11.628;2023-01-29T11:56:44;14.23;;;11.15;;
1014;SDS011;8170;48.118;11.628;2023-01-29T11:57:54;17.80;;;15.18;;
1014;SDS011;8170;48.118;11.628;2023-01-29T11:59:34;19.00;;;14.70;;
1014;SDS011;8170;48.118;11.628;2023-01-29T12:00:58;15.35;;;12.18;;
1014;SDS011;8170;48.118;11.628;2023-01-29T12:03:55;14.77;;;11.43;;
1014;SDS011;8170;48.118;11.628;2023-01-29T12:05:05;14.45;;;11.65;;
1014;SDS011;8170;48.118;11.628;2023-01-29T12:06:19;12.43;;;10.90;;
1014;SDS011;8170;48.118;11.628;2023-01-29T12:07:27;20.52;;;15.80;;
1014;SDS011;8170;48.118;11.628;2023-01-29T12:08:42;17.85;;;15.50;;
1014;SDS011;8170;48.118;11.628;2023-01-29T12:10:00;27.10;;;18.15;;
1014;SDS011;8170;48.118;11.628;2023-01-29T12:11:11;27.63;;;18.17;;
1014;SDS011;8170;48.118;11.628;2023-01-29T12:14:32;19.25;;;14.30;;
1014;SDS011;8170;48.118;11.628;2023-01-29T12:15:45;17.90;;;13.43;;
1014;SDS011;8170;48.118;11.628;2023-01-29T12:16:51;13.20;;;10.38;;
1014;SDS011;8170;48.118;11.628;2023-01-29T12:18:22;12.55;;;10.15;;
1014;SDS011;8170;48.118;11.628;2023-01-29T12:19:39;48.75;;;29.23;;
1014;SDS011;8170;48.118;11.628;2023-01-29T12:20:50;16.08;;;13.20;;
1014;SDS011;8170;48.118;11.628;2023-01-29T12:22:15;15.90;;;12.10;;
1014;SDS011;8170;48.118;11.628;2023-01-29T12:23:34;24.58;;;16.33;;
1014;SDS011;8170;48.118;11.628;2023-01-29T12:24:52;148.25;;;74.45;;
1014;SDS011;8170;48.118;11.628;2023-01-29T12:26:06;80.80;;;43.30;;
1014;SDS011;8170;48.118;11.628;2023-01-29T12:27:18;63.63;;;35.22;;
1014;SDS011;8170;48.118;11.628;2023-01-29T12:28:37;48.13;;;33.05;;
1014;SDS011;8170;48.118;11.628;2023-01-29T12:29:51;17.60;;;15.23;;
1014;SDS011;8170;48.118;11.628;2023-01-29T12:31:09;16.83;;;13.48;;
1014;SDS011;8170;48.118;11.628;2023-01-29T12:32:26;15.80;;;13.00;;